sensor_id;sensor_type;location;lat;lon;timestamp;pressure;altitude;pressure_sealevel;temperature;humidity
35878;BME280;21982;49.804;24.072;2023-03-30T00:00:39;97437.50;;;0.64;41.62
35878;BME280;21982;49.804;24.072;2023-03-30T00:03:07;97517.44;;;1.07;41.20
35878;BME280;21982;49.804;24.072;2023-03-30T00:05:33;97490.88;;;0.81;41.20
35878;BME280;21982;49.804;24.072;2023-03-30T00:07:59;97402.38;;;0.37;41.66
35878;BME280;21982;49.804;24.072;2023-03-30T00:10:24;97412.31;;;0.43;41.37
35878;BME280;21982;49.804;24.072;2023-03-30T00:12:51;97549.06;;;1.25;41.33
35878;BME280;21982;49.804;24.072;2023-03-30T00:15:19;97546.44;;;1.25;41.52
35878;BME280;21982;49.804;24.072;2023-03-30T00:17:45;97520.97;;;0.85;41.45
35878;BME280;21982;49.804;24.072;2023-03-30T00:20:12;97395.69;;;0.23;41.32
35878;BME280;21982;49.804;24.072;2023-03-30T00:22:39;97530.47;;;1.18;41.58
35878;BME280;21982;49.804;24.072;2023-03-30T00:25:06;97543.00;;;1.24;41.29
35878;BME280;21982;49.804;24.072;2023-03-30T00:27:33;97536.97;;;1.24;41.11
35878;BME280;21982;49.804;24.072;2023-03-30T00:30:00;97404.03;;;0.49;41.65
35878;BME280;21982;49.804;24.072;2023-03-30T00:32:25;97539.91;;;1.30;41.29
35878;BME280;21982;49.804;24.072;2023-03-30T00:34:51;97524.25;;;1.30;41.28
35878;BME280;21982;49.804;24.072;2023-03-30T00:37:16;97515.72;;;1.28;41.24
35878;BME280;21982;49.804;24.072;2023-03-30T00:39:43;97368.09;;;0.31;41.15
35878;BME280;21982;49.804;24.072;2023-03-30T00:42:15;97509.38;;;1.10;41.67
35878;BME280;21982;49.804;24.072;2023-03-30T00:47:25;97525.00;;;1.21;41.35
35878;BME280;21982;49.804;24.072;2023-03-30T00:49:52;97520.03;;;1.18;41.64
35878;BME280;21982;49.804;24.072;2023-03-30T00:52:18;97235.31;;;-0.66;41.67
35878;BME280;21982;49.804;24.072;2023-03-30T00:54:44;97375.31;;;0.28;41.92
35878;BME280;21982;49.804;24.072;2023-03-30T00:57:11;97514.09;;;1.16;41.89
35878;BME280;21982;49.804;24.072;2023-03-30T00:59:37;97520.97;;;1.17;41.48
35878;BME280;21982;49.804;24.072;2023-03-30T01:02:03;97523.72;;;1.16;42.15
35878;BME280;21982;49.804;24.072;2023-03-30T01:04:30;97470.59;;;0.85;41.47
35878;BME280;21982;49.804;24.072;2023-03-30T01:06:56;97514.22;;;1.15;42.05
35878;BME280;21982;49.804;24.072;2023-03-30T01:09:22;97517.91;;;1.12;41.58
35878;BME280;21982;49.804;24.072;2023-03-30T01:11:49;97296.50;;;-0.17;41.89
35878;BME280;21982;49.804;24.072;2023-03-30T01:14:15;97508.19;;;1.14;41.96
35878;BME280;21982;49.804;24.072;2023-03-30T01:33:28;97501.56;;;1.10;41.64
35878;BME280;21982;49.804;24.072;2023-03-30T01:39:35;97507.84;;;1.08;41.78
35878;BME280;21982;49.804;24.072;2023-03-30T01:42:19;97512.22;;;1.07;41.68
35878;BME280;21982;49.804;24.072;2023-03-30T01:53:16;97431.63;;;0.51;41.47
35878;BME280;21982;49.804;24.072;2023-03-30T01:55:54;97488.16;;;0.83;41.56
35878;BME280;21982;49.804;24.072;2023-03-30T01:58:46;97428.75;;;0.65;41.54
35878;BME280;21982;49.804;24.072;2023-03-30T02:01:14;97509.50;;;1.09;41.34
35878;BME280;21982;49.804;24.072;2023-03-30T02:03:43;97506.78;;;1.10;41.43
35878;BME280;21982;49.804;24.072;2023-03-30T02:06:21;97348.34;;;0.18;41.24
35878;BME280;21982;49.804;24.072;2023-03-30T02:08:49;97401.41;;;0.49;41.60
35878;BME280;21982;49.804;24.072;2023-03-30T02:11:19;97486.97;;;1.08;41.36
35878;BME280;21982;49.804;24.072;2023-03-30T02:13:45;97377.63;;;0.42;41.18
35878;BME280;21982;49.804;24.072;2023-03-30T02:16:15;97331.56;;;0.11;41.55
35878;BME280;21982;49.804;24.072;2023-03-30T02:18:42;97365.16;;;0.14;41.21
35878;BME280;21982;49.804;24.072;2023-03-30T02:21:09;97404.16;;;0.47;41.36
35878;BME280;21982;49.804;24.072;2023-03-30T02:23:37;97415.75;;;0.43;41.35
35878;BME280;21982;49.804;24.072;2023-03-30T02:26:04;97320.72;;;-0.06;41.61
35878;BME280;21982;49.804;24.072;2023-03-30T02:28:32;97486.94;;;0.87;41.53
35878;BME280;21982;49.804;24.072;2023-03-30T02:30:57;97454.47;;;0.59;41.74
35878;BME280;21982;49.804;24.072;2023-03-30T02:33:30;97476.53;;;0.76;41.79
35878;BME280;21982;49.804;24.072;2023-03-30T02:36:31;97475.78;;;0.64;41.66
35878;BME280;21982;49.804;24.072;2023-03-30T02:44:43;97486.56;;;0.37;42.29
35878;BME280;21982;49.804;24.072;2023-03-30T02:55:18;97381.66;;;-0.30;42.85
35878;BME280;21982;49.804;24.072;2023-03-30T02:58:08;97446.59;;;0.05;42.60
35878;BME280;21982;49.804;24.072;2023-03-30T03:00:44;97488.72;;;0.21;42.99
35878;BME280;21982;49.804;24.072;2023-03-30T03:03:25;97473.47;;;0.16;42.81
35878;BME280;21982;49.804;24.072;2023-03-30T03:05:53;97475.59;;;0.11;43.25
35878;BME280;21982;49.804;24.072;2023-03-30T03:08:23;97331.44;;;-0.76;43.27
35878;BME280;21982;49.804;24.072;2023-03-30T03:10:50;97469.66;;;0.09;43.33
35878;BME280;21982;49.804;24.072;2023-03-30T03:13:16;97331.53;;;-0.77;43.49
35878;BME280;21982;49.804;24.072;2023-03-30T03:15:43;97466.13;;;0.10;43.54
35878;BME280;21982;49.804;24.072;2023-03-30T03:18:11;97313.94;;;-0.85;43.59
35878;BME280;21982;49.804;24.072;2023-03-30T03:20:37;97499.38;;;0.18;43.78
35878;BME280;21982;49.804;24.072;2023-03-30T03:23:03;97474.88;;;0.20;43.64
35878;BME280;21982;49.804;24.072;2023-03-30T03:25:28;97474.41;;;0.26;43.57
35878;BME280;21982;49.804;24.072;2023-03-30T03:27:54;97468.84;;;0.31;43.21
35878;BME280;21982;49.804;24.072;2023-03-30T03:30:19;97437.94;;;0.15;43.67
35878;BME280;21982;49.804;24.072;2023-03-30T03:32:45;97414.16;;;0.09;43.69
35878;BME280;21982;49.804;24.072;2023-03-30T03:35:11;97383.44;;;-0.20;43.53
35878;BME280;21982;49.804;24.072;2023-03-30T03:37:36;97266.19;;;-0.95;43.49
35878;BME280;21982;49.804;24.072;2023-03-30T03:40:02;97448.91;;;0.52;43.42
35878;BME280;21982;49.804;24.072;2023-03-30T03:42:29;97460.84;;;0.55;43.59
35878;BME280;21982;49.804;24.072;2023-03-30T03:44:55;97400.41;;;0.29;43.66
35878;BME280;21982;49.804;24.072;2023-03-30T03:47:20;97317.78;;;-0.12;43.52
35878;BME280;21982;49.804;24.072;2023-03-30T03:49:47;97426.03;;;0.56;43.47
35878;BME280;21982;49.804;24.072;2023-03-30T03:52:12;97405.44;;;0.53;43.38
35878;BME280;21982;49.804;24.072;2023-03-30T03:54:37;97184.19;;;-0.77;43.31
35878;BME280;21982;49.804;24.072;2023-03-30T03:57:03;97460.16;;;0.96;43.37
35878;BME280;21982;49.804;24.072;2023-03-30T03:59:29;97446.34;;;1.05;43.30
35878;BME280;21982;49.804;24.072;2023-03-30T04:01:55;97443.22;;;1.11;42.83
35878;BME280;21982;49.804;24.072;2023-03-30T04:04:20;97402.81;;;0.85;43.13
35878;BME280;21982;49.804;24.072;2023-03-30T04:06:45;97448.91;;;1.16;42.75
35878;BME280;21982;49.804;24.072;2023-03-30T04:09:11;97460.03;;;1.18;42.62
35878;BME280;21982;49.804;24.072;2023-03-30T04:11:36;97347.75;;;0.57;42.93
35878;BME280;21982;49.804;24.072;2023-03-30T04:14:02;97345.97;;;0.58;42.69
35878;BME280;21982;49.804;24.072;2023-03-30T04:16:27;97438.84;;;1.12;42.75
35878;BME280;21982;49.804;24.072;2023-03-30T04:18:53;97301.00;;;0.24;42.73
35878;BME280;21982;49.804;24.072;2023-03-30T04:21:18;97178.69;;;-0.62;43.07
35878;BME280;21982;49.804;24.072;2023-03-30T04:23:44;97431.72;;;0.93;43.16
35878;BME280;21982;49.804;24.072;2023-03-30T04:26:13;97450.91;;;0.92;43.70
35878;BME280;21982;49.804;24.072;2023-03-30T04:28:40;97414.81;;;0.76;43.31
35878;BME280;21982;49.804;24.072;2023-03-30T04:31:07;97448.69;;;0.87;43.70
35878;BME280;21982;49.804;24.072;2023-03-30T04:33:38;97434.09;;;0.85;43.67
35878;BME280;21982;49.804;24.072;2023-03-30T04:36:10;97312.88;;;0.06;43.86
35878;BME280;21982;49.804;24.072;2023-03-30T04:38:37;97432.25;;;0.76;43.59
35878;BME280;21982;49.804;24.072;2023-03-30T04:41:02;97432.38;;;0.74;43.79
35878;BME280;21982;49.804;24.072;2023-03-30T04:43:29;97431.28;;;0.77;44.03
35878;BME280;21982;49.804;24.072;2023-03-30T04:45:55;97323.75;;;0.11;44.04
35878;BME280;21982;49.804;24.072;2023-03-30T04:48:22;97304.47;;;0.02;43.88
35878;BME280;21982;49.804;24.072;2023-03-30T04:50:49;97386.13;;;0.55;43.92
35878;BME280;21982;49.804;24.072;2023-03-30T04:53:16;97436.56;;;1.60;43.51
35878;BME280;21982;49.804;24.072;2023-03-30T04:55:46;97390.66;;;2.47;42.64
35878;BME280;21982;49.804;24.072;2023-03-30T04:58:12;97321.59;;;2.79;42.25
35878;BME280;21982;49.804;24.072;2023-03-30T05:00:38;97391.53;;;3.99;41.09
35878;BME280;21982;49.804;24.072;2023-03-30T05:03:04;97432.09;;;4.77;40.37
35878;BME280;21982;49.804;24.072;2023-03-30T05:05:30;97374.06;;;4.98;39.53
35878;BME280;21982;49.804;24.072;2023-03-30T05:07:55;97378.34;;;5.43;39.19
35878;BME280;21982;49.804;24.072;2023-03-30T05:10:21;97426.09;;;6.16;38.78
35878;BME280;21982;49.804;24.072;2023-03-30T05:12:47;97427.72;;;6.51;38.39
35878;BME280;21982;49.804;24.072;2023-03-30T05:15:13;97256.38;;;5.79;38.30
35878;BME280;21982;49.804;24.072;2023-03-30T05:17:38;97359.31;;;6.51;37.11
35878;BME280;21982;49.804;24.072;2023-03-30T05:20:05;97431.28;;;6.92;37.12
35878;BME280;21982;49.804;24.072;2023-03-30T05:22:34;97435.16;;;5.69;37.93
35878;BME280;21982;49.804;24.072;2023-03-30T05:25:04;97293.97;;;3.87;38.80
35878;BME280;21982;49.804;24.072;2023-03-30T05:27:31;97307.69;;;3.07;40.07
35878;BME280;21982;49.804;24.072;2023-03-30T05:29:58;97425.38;;;3.46;40.57
35878;BME280;21982;49.804;24.072;2023-03-30T05:32:24;97430.88;;;3.14;40.33
35878;BME280;21982;49.804;24.072;2023-03-30T05:34:50;97419.19;;;2.89;40.78
35878;BME280;21982;49.804;24.072;2023-03-30T05:37:15;97370.16;;;2.43;41.05
35878;BME280;21982;49.804;24.072;2023-03-30T05:39:40;97416.28;;;2.63;40.82
35878;BME280;21982;49.804;24.072;2023-03-30T05:42:06;97384.75;;;2.35;41.62
35878;BME280;21982;49.804;24.072;2023-03-30T05:44:32;97419.56;;;2.55;41.99
35878;BME280;21982;49.804;24.072;2023-03-30T05:46:58;97418.47;;;2.58;41.17
35878;BME280;21982;49.804;24.072;2023-03-30T05:49:23;97205.19;;;1.30;41.44
35878;BME280;21982;49.804;24.072;2023-03-30T05:51:49;97415.47;;;2.62;41.63
35878;BME280;21982;49.804;24.072;2023-03-30T05:54:15;97252.50;;;1.75;41.52
35878;BME280;21982;49.804;24.072;2023-03-30T05:56:40;97335.59;;;3.63;40.78
35878;BME280;21982;49.804;24.072;2023-03-30T05:59:07;97396.47;;;6.05;39.07
35878;BME280;21982;49.804;24.072;2023-03-30T06:01:33;97357.88;;;7.29;37.29
35878;BME280;21982;49.804;24.072;2023-03-30T06:03:59;97316.13;;;8.13;36.25
35878;BME280;21982;49.804;24.072;2023-03-30T06:06:25;97365.06;;;9.08;35.75
35878;BME280;21982;49.804;24.072;2023-03-30T06:08:51;97386.56;;;9.95;34.84
35878;BME280;21982;49.804;24.072;2023-03-30T06:11:17;97360.03;;;10.32;34.46
35878;BME280;21982;49.804;24.072;2023-03-30T06:13:42;97393.09;;;10.94;34.02
35878;BME280;21982;49.804;24.072;2023-03-30T06:16:08;97390.59;;;11.28;33.66
35878;BME280;21982;49.804;24.072;2023-03-30T06:18:33;97352.16;;;11.39;33.23
35878;BME280;21982;49.804;24.072;2023-03-30T06:20:59;97323.63;;;11.41;33.35
35878;BME280;21982;49.804;24.072;2023-03-30T06:23:27;97355.69;;;12.08;33.00
35878;BME280;21982;49.804;24.072;2023-03-30T06:25:53;97299.97;;;12.15;32.56
35878;BME280;21982;49.804;24.072;2023-03-30T06:28:19;97244.06;;;12.23;32.28
35878;BME280;21982;49.804;24.072;2023-03-30T06:30:45;97381.28;;;13.45;31.83
35878;BME280;21982;49.804;24.072;2023-03-30T06:33:14;97303.91;;;13.33;31.02
35878;BME280;21982;49.804;24.072;2023-03-30T06:35:46;97300.81;;;13.56;30.59
35878;BME280;21982;49.804;24.072;2023-03-30T06:38:13;97335.56;;;13.94;30.44
35878;BME280;21982;49.804;24.072;2023-03-30T06:40:39;97378.69;;;14.42;30.31
35878;BME280;21982;49.804;24.072;2023-03-30T07:23:22;97232.09;;;14.11;27.39
35878;BME280;21982;49.804;24.072;2023-03-30T07:25:48;97356.63;;;15.36;27.40
35878;BME280;21982;49.804;24.072;2023-03-30T07:28:13;97361.72;;;15.69;27.46
35878;BME280;21982;49.804;24.072;2023-03-30T07:30:39;96980.06;;;12.84;26.96
35878;BME280;21982;49.804;24.072;2023-03-30T07:33:05;96996.81;;;12.91;27.60
35878;BME280;21982;49.804;24.072;2023-03-30T07:35:30;97351.94;;;15.00;27.28
35878;BME280;21982;49.804;24.072;2023-03-30T07:37:56;97310.75;;;14.96;27.70
35878;BME280;21982;49.804;24.072;2023-03-30T07:40:23;97352.28;;;15.66;27.94
35878;BME280;21982;49.804;24.072;2023-03-30T07:42:53;96986.78;;;13.44;27.06
35878;BME280;21982;49.804;24.072;2023-03-30T07:45:19;97287.03;;;15.62;26.90
35878;BME280;21982;49.804;24.072;2023-03-30T07:47:44;97172.41;;;15.67;26.67
35878;BME280;21982;49.804;24.072;2023-03-30T07:50:10;97341.75;;;16.51;26.62
35878;BME280;21982;49.804;24.072;2023-03-30T07:52:35;96979.16;;;13.09;27.34
35878;BME280;21982;49.804;24.072;2023-03-30T07:55:02;97352.16;;;13.89;28.56
35878;BME280;21982;49.804;24.072;2023-03-30T07:57:27;97206.28;;;11.73;29.55
35878;BME280;21982;49.804;24.072;2023-03-30T07:59:53;97358.75;;;12.05;30.06
35878;BME280;21982;49.804;24.072;2023-03-30T08:02:18;97363.47;;;11.54;30.92
35878;BME280;21982;49.804;24.072;2023-03-30T08:04:44;97350.66;;;11.08;31.63
35878;BME280;21982;49.804;24.072;2023-03-30T08:07:12;97358.03;;;10.92;32.16
35878;BME280;21982;49.804;24.072;2023-03-30T08:09:37;97345.25;;;10.59;32.64
35878;BME280;21982;49.804;24.072;2023-03-30T08:12:05;97354.31;;;10.50;33.11
35878;BME280;21982;49.804;24.072;2023-03-30T08:14:33;97343.41;;;10.38;32.91
35878;BME280;21982;49.804;24.072;2023-03-30T08:16:58;97255.34;;;9.64;33.29
35878;BME280;21982;49.804;24.072;2023-03-30T08:19:24;97344.13;;;10.18;33.31
35878;BME280;21982;49.804;24.072;2023-03-30T08:21:52;97335.03;;;10.20;33.66
35878;BME280;21982;49.804;24.072;2023-03-30T08:24:18;97104.28;;;8.72;33.31
35878;BME280;21982;49.804;24.072;2023-03-30T08:26:43;97302.75;;;9.66;34.19
35878;BME280;21982;49.804;24.072;2023-03-30T08:29:09;97290.53;;;9.65;34.02
35878;BME280;21982;49.804;24.072;2023-03-30T08:31:37;97272.03;;;9.65;34.27
35878;BME280;21982;49.804;24.072;2023-03-30T08:34:04;97341.84;;;10.15;34.21
35878;BME280;21982;49.804;24.072;2023-03-30T08:36:31;97350.97;;;10.12;34.37
35878;BME280;21982;49.804;24.072;2023-03-30T08:38:57;97337.84;;;9.89;34.15
35878;BME280;21982;49.804;24.072;2023-03-30T08:43:56;97345.22;;;9.79;34.98
35878;BME280;21982;49.804;24.072;2023-03-30T08:46:23;97348.78;;;9.86;35.34
35878;BME280;21982;49.804;24.072;2023-03-30T08:48:50;97336.28;;;9.80;35.42
35878;BME280;21982;49.804;24.072;2023-03-30T08:51:43;97145.50;;;8.59;35.68
35878;BME280;21982;49.804;24.072;2023-03-30T08:54:17;97196.19;;;9.06;35.53
35878;BME280;21982;49.804;24.072;2023-03-30T08:56:52;97330.47;;;9.85;35.58
35878;BME280;21982;49.804;24.072;2023-03-30T09:02:18;97324.09;;;9.64;36.11
35878;BME280;21982;49.804;24.072;2023-03-30T09:07:39;97332.28;;;9.84;36.67
35878;BME280;21982;49.804;24.072;2023-03-30T09:10:15;97261.28;;;9.66;36.68
35878;BME280;21982;49.804;24.072;2023-03-30T09:12:47;97310.84;;;9.79;35.98
35878;BME280;21982;49.804;24.072;2023-03-30T09:15:20;97160.66;;;9.09;36.74
35878;BME280;21982;49.804;24.072;2023-03-30T09:17:58;97299.81;;;9.90;36.80
35878;BME280;21982;49.804;24.072;2023-03-30T09:20:30;97297.81;;;9.92;37.07
35878;BME280;21982;49.804;24.072;2023-03-30T09:23:01;97304.34;;;10.11;36.89
35878;BME280;21982;49.804;24.072;2023-03-30T09:25:47;97295.41;;;10.12;37.11
35878;BME280;21982;49.804;24.072;2023-03-30T09:34:02;97284.09;;;10.54;36.80
35878;BME280;21982;49.804;24.072;2023-03-30T09:38:57;97276.91;;;10.91;36.85
35878;BME280;21982;49.804;24.072;2023-03-30T09:47:24;97250.16;;;12.11;35.76
35878;BME280;21982;49.804;24.072;2023-03-30T09:50:26;97249.28;;;13.11;35.15
35878;BME280;21982;49.804;24.072;2023-03-30T09:53:01;97140.31;;;12.84;34.31
35878;BME280;21982;49.804;24.072;2023-03-30T09:55:31;97260.31;;;13.54;33.92
35878;BME280;21982;49.804;24.072;2023-03-30T09:58:16;97240.41;;;13.76;34.21
35878;BME280;21982;49.804;24.072;2023-03-30T10:00:42;97061.41;;;12.85;33.74
35878;BME280;21982;49.804;24.072;2023-03-30T10:03:20;97098.53;;;13.37;33.42
35878;BME280;21982;49.804;24.072;2023-03-30T10:06:20;97246.00;;;14.89;32.58
35878;BME280;21982;49.804;24.072;2023-03-30T10:08:49;97226.16;;;14.85;32.64
35878;BME280;21982;49.804;24.072;2023-03-30T10:11:20;97258.00;;;14.73;32.10
35878;BME280;21982;49.804;24.072;2023-03-30T10:13:48;97132.00;;;14.28;32.55
35878;BME280;21982;49.804;24.072;2023-03-30T10:16:24;97239.59;;;15.39;31.63
35878;BME280;21982;49.804;24.072;2023-03-30T10:18:58;97238.06;;;15.93;31.85
35878;BME280;21982;49.804;24.072;2023-03-30T10:21:28;97232.13;;;16.69;30.53
35878;BME280;21982;49.804;24.072;2023-03-30T10:26:44;97179.34;;;16.35;30.69
35878;BME280;21982;49.804;24.072;2023-03-30T10:29:16;97196.25;;;17.00;30.27
35878;BME280;21982;49.804;24.072;2023-03-30T10:31:44;97136.72;;;16.93;29.77
35878;BME280;21982;49.804;24.072;2023-03-30T10:34:17;97217.00;;;17.28;29.94
35878;BME280;21982;49.804;24.072;2023-03-30T10:36:46;97201.94;;;17.04;30.16
35878;BME280;21982;49.804;24.072;2023-03-30T10:39:27;97196.94;;;17.07;30.39
35878;BME280;21982;49.804;24.072;2023-03-30T10:41:54;97119.94;;;16.21;30.33
35878;BME280;21982;49.804;24.072;2023-03-30T10:52:28;97160.22;;;14.42;32.41
35878;BME280;21982;49.804;24.072;2023-03-30T10:55:20;97183.97;;;14.05;32.94
35878;BME280;21982;49.804;24.072;2023-03-30T11:01:02;97164.25;;;13.75;33.30
35878;BME280;21982;49.804;24.072;2023-03-30T11:03:31;97099.34;;;13.38;33.43
35878;BME280;21982;49.804;24.072;2023-03-30T11:08:38;96986.97;;;12.98;33.34
35878;BME280;21982;49.804;24.072;2023-03-30T11:11:05;96894.66;;;12.29;33.48
35878;BME280;21982;49.804;24.072;2023-03-30T11:13:42;97084.00;;;13.78;33.30
35878;BME280;21982;49.804;24.072;2023-03-30T11:16:26;97167.38;;;14.73;33.18
35878;BME280;21982;49.804;24.072;2023-03-30T11:19:01;97069.41;;;14.19;33.26
35878;BME280;21982;49.804;24.072;2023-03-30T11:24:22;97105.47;;;15.32;33.09
35878;BME280;21982;49.804;24.072;2023-03-30T11:26:55;96830.03;;;14.29;32.42
35878;BME280;21982;49.804;24.072;2023-03-30T11:29:53;97136.59;;;16.35;32.24
35878;BME280;21982;49.804;24.072;2023-03-30T11:40:25;97087.44;;;15.28;32.95
35878;BME280;21982;49.804;24.072;2023-03-30T11:42:54;97077.22;;;15.61;33.09
35878;BME280;21982;49.804;24.072;2023-03-30T11:56:38;97086.06;;;17.38;31.48
35878;BME280;21982;49.804;24.072;2023-03-30T12:02:04;97084.72;;;17.64;31.39
35878;BME280;21982;49.804;24.072;2023-03-30T12:04:44;96984.16;;;17.28;31.26
35878;BME280;21982;49.804;24.072;2023-03-30T12:09:53;97046.09;;;18.05;30.47
35878;BME280;21982;49.804;24.072;2023-03-30T12:12:30;97080.56;;;18.14;30.70
35878;BME280;21982;49.804;24.072;2023-03-30T12:17:55;97061.19;;;18.73;29.99
35878;BME280;21982;49.804;24.072;2023-03-30T12:20:31;97076.66;;;18.66;29.56
35878;BME280;21982;49.804;24.072;2023-03-30T12:28:15;97059.63;;;18.44;29.96
35878;BME280;21982;49.804;24.072;2023-03-30T12:31:03;96932.44;;;17.39;29.99
35878;BME280;21982;49.804;24.072;2023-03-30T12:33:51;97039.56;;;18.30;30.22
35878;BME280;21982;49.804;24.072;2023-03-30T12:36:29;97051.22;;;18.69;30.03
35878;BME280;21982;49.804;24.072;2023-03-30T12:38:59;96821.44;;;16.97;29.82
35878;BME280;21982;49.804;24.072;2023-03-30T12:41:46;97046.22;;;18.44;30.07
35878;BME280;21982;49.804;24.072;2023-03-30T12:58:12;97046.97;;;18.23;29.87
35878;BME280;21982;49.804;24.072;2023-03-30T13:04:05;97003.78;;;17.74;30.15
35878;BME280;21982;49.804;24.072;2023-03-30T13:06:36;97036.78;;;17.51;30.33
35878;BME280;21982;49.804;24.072;2023-03-30T13:12:05;97047.25;;;17.24;30.77
35878;BME280;21982;49.804;24.072;2023-03-30T13:27:37;96829.28;;;15.18;31.12
35878;BME280;21982;49.804;24.072;2023-03-30T13:51:41;96977.34;;;14.04;34.28
35878;BME280;21982;49.804;24.072;2023-03-30T13:54:15;96702.34;;;12.50;34.38
35878;BME280;21982;49.804;24.072;2023-03-30T13:56:47;96845.75;;;13.26;34.32
35878;BME280;21982;49.804;24.072;2023-03-30T13:59:19;96963.81;;;13.81;34.61
35878;BME280;21982;49.804;24.072;2023-03-30T14:01:52;96622.19;;;11.07;35.01
35878;BME280;21982;49.804;24.072;2023-03-30T14:04:18;96962.03;;;12.99;35.55
35878;BME280;21982;49.804;24.072;2023-03-30T14:06:46;96925.56;;;12.74;35.81
35878;BME280;21982;49.804;24.072;2023-03-30T14:09:26;96798.63;;;11.81;35.78
35878;BME280;21982;49.804;24.072;2023-03-30T14:11:56;96963.41;;;12.50;36.33
35878;BME280;21982;49.804;24.072;2023-03-30T14:14:36;96946.50;;;12.31;36.41
35878;BME280;21982;49.804;24.072;2023-03-30T14:17:16;96958.19;;;12.11;36.89
35878;BME280;21982;49.804;24.072;2023-03-30T14:20:37;96953.72;;;12.04;37.23
35878;BME280;21982;49.804;24.072;2023-03-30T14:22:40;96947.19;;;12.00;36.96
35878;BME280;21982;49.804;24.072;2023-03-30T14:25:28;96945.94;;;11.90;37.15
35878;BME280;21982;49.804;24.072;2023-03-30T14:27:57;96963.09;;;11.81;37.41
35878;BME280;21982;49.804;24.072;2023-03-30T14:30:27;96876.97;;;11.30;37.28
35878;BME280;21982;49.804;24.072;2023-03-30T14:33:07;96945.94;;;11.70;37.54
35878;BME280;21982;49.804;24.072;2023-03-30T14:35:40;96799.88;;;10.72;37.70
35878;BME280;21982;49.804;24.072;2023-03-30T14:38:14;96919.38;;;11.43;37.41
35878;BME280;21982;49.804;24.072;2023-03-30T14:40:40;96852.66;;;10.94;37.91
35878;BME280;21982;49.804;24.072;2023-03-30T14:43:12;96665.41;;;9.67;38.11
35878;BME280;21982;49.804;24.072;2023-03-30T14:45:38;96865.09;;;11.00;37.96
35878;BME280;21982;49.804;24.072;2023-03-30T14:48:05;96967.94;;;11.57;38.15
35878;BME280;21982;49.804;24.072;2023-03-30T14:50:32;96630.94;;;9.41;38.18
35878;BME280;21982;49.804;24.072;2023-03-30T14:52:58;96646.38;;;9.37;37.88
35878;BME280;21982;49.804;24.072;2023-03-30T14:55:24;96866.28;;;10.84;38.14
35878;BME280;21982;49.804;24.072;2023-03-30T14:57:51;96867.88;;;10.65;38.36
35878;BME280;21982;49.804;24.072;2023-03-30T15:00:19;96920.50;;;10.88;38.20
35878;BME280;21982;49.804;24.072;2023-03-30T15:02:51;96965.56;;;10.95;38.87
35878;BME280;21982;49.804;24.072;2023-03-30T15:05:20;96967.13;;;10.83;38.60
35878;BME280;21982;49.804;24.072;2023-03-30T15:07:50;96774.53;;;9.55;38.67
35878;BME280;21982;49.804;24.072;2023-03-30T15:10:21;96679.84;;;8.89;38.93
35878;BME280;21982;49.804;24.072;2023-03-30T15:12:47;96879.44;;;10.17;39.05
35878;BME280;21982;49.804;24.072;2023-03-30T15:15:14;96853.66;;;9.91;39.31
35878;BME280;21982;49.804;24.072;2023-03-30T16:23:36;96260.06;;;5.18;42.22
35878;BME280;21982;49.804;24.072;2023-03-30T16:26:02;96828.63;;;8.60;42.72
35878;BME280;21982;49.804;24.072;2023-03-30T16:28:28;96899.41;;;9.14;43.13
35878;BME280;21982;49.804;24.072;2023-03-30T16:30:56;96908.34;;;9.13;41.98
35878;BME280;21982;49.804;24.072;2023-03-30T16:33:24;96908.09;;;9.08;42.85
35878;BME280;21982;49.804;24.072;2023-03-30T16:35:51;96728.88;;;7.98;42.83
35878;BME280;21982;49.804;24.072;2023-03-30T16:38:22;96903.38;;;9.03;42.77
35878;BME280;21982;49.804;24.072;2023-03-30T16:40:50;96903.31;;;8.97;42.81
35878;BME280;21982;49.804;24.072;2023-03-30T16:43:16;96905.72;;;8.92;43.73
35878;BME280;21982;49.804;24.072;2023-03-30T16:45:42;96907.28;;;8.86;43.44
35878;BME280;21982;49.804;24.072;2023-03-30T16:48:12;96771.31;;;8.03;43.93
35878;BME280;21982;49.804;24.072;2023-03-30T16:50:53;96722.47;;;7.71;43.53
35878;BME280;21982;49.804;24.072;2023-03-30T16:53:20;96911.56;;;8.72;43.73
35878;BME280;21982;49.804;24.072;2023-03-30T16:55:46;96753.66;;;7.83;43.94
35878;BME280;21982;49.804;24.072;2023-03-30T16:58:13;96891.19;;;8.66;44.20
35878;BME280;21982;49.804;24.072;2023-03-30T17:00:46;96611.69;;;6.93;44.19
35878;BME280;21982;49.804;24.072;2023-03-30T17:03:14;96894.88;;;8.65;44.33
35878;BME280;21982;49.804;24.072;2023-03-30T17:05:41;96885.72;;;8.68;44.31
35878;BME280;21982;49.804;24.072;2023-03-30T17:08:28;96901.16;;;8.64;44.29
35878;BME280;21982;49.804;24.072;2023-03-30T17:10:59;96909.06;;;8.64;44.59
35878;BME280;21982;49.804;24.072;2023-03-30T17:13:29;96914.34;;;8.64;44.88
35878;BME280;21982;49.804;24.072;2023-03-30T17:15:56;96880.25;;;8.48;45.19
35878;BME280;21982;49.804;24.072;2023-03-30T17:18:27;96863.06;;;8.37;45.19
35878;BME280;21982;49.804;24.072;2023-03-30T17:23:25;96828.41;;;8.26;45.34
35878;BME280;21982;49.804;24.072;2023-03-30T17:25:52;96895.16;;;8.56;45.45
35878;BME280;21982;49.804;24.072;2023-03-30T17:28:24;96877.88;;;8.53;45.36
35878;BME280;21982;49.804;24.072;2023-03-30T17:30:53;96878.31;;;8.57;45.48
35878;BME280;21982;49.804;24.072;2023-03-30T17:33:18;96887.06;;;8.57;45.43
35878;BME280;21982;49.804;24.072;2023-03-30T17:36:26;96869.06;;;8.46;45.81
35878;BME280;21982;49.804;24.072;2023-03-30T17:38:52;96799.88;;;8.00;46.16
35878;BME280;21982;49.804;24.072;2023-03-30T17:41:19;96883.16;;;8.53;46.04
35878;BME280;21982;49.804;24.072;2023-03-30T17:44:06;96818.25;;;8.08;45.27
35878;BME280;21982;49.804;24.072;2023-03-30T17:46:31;96755.56;;;7.74;46.60
35878;BME280;21982;49.804;24.072;2023-03-30T17:48:57;96819.16;;;8.15;46.74
35878;BME280;21982;49.804;24.072;2023-03-30T17:51:23;96872.69;;;8.45;46.49